createdAt,value
2018-08-17T00:00:35.858Z,98158.80
2018-08-17T00:02:48.067Z,98156.36
2018-08-17T00:05:00.326Z,98161.93
2018-08-17T00:07:12.542Z,98157.47
2018-08-17T00:09:24.735Z,98163.41
2018-08-17T00:11:37.014Z,98166.05
2018-08-17T00:13:49.190Z,98163.81
2018-08-17T00:16:01.451Z,98162.95
2018-08-17T00:18:13.649Z,98168.36
2018-08-17T00:20:26.150Z,98169.89
2018-08-17T00:22:38.361Z,98167.36
2018-08-17T00:24:50.544Z,98171.29
2018-08-17T00:27:02.762Z,98169.15
2018-08-17T00:29:14.973Z,98168.30
2018-08-17T00:31:27.173Z,98164.67
2018-08-17T00:33:39.387Z,98164.61
2018-08-17T00:35:51.582Z,98162.11
2018-08-17T00:38:04.167Z,98167.84
2018-08-17T00:40:16.411Z,98161.69
2018-08-17T00:42:28.602Z,98162.45
2018-08-17T00:44:40.807Z,98160.20
2018-08-17T00:46:53.054Z,98160.92
2018-08-17T00:49:05.642Z,98158.63
2018-08-17T00:51:17.809Z,98159.33
2018-08-17T00:53:30.092Z,98157.09
2018-08-17T00:55:42.327Z,98152.52
2018-08-17T00:57:54.507Z,98154.61
2018-08-17T01:00:06.762Z,98156.22
2018-08-17T01:02:18.973Z,98156.72
2018-08-17T01:04:31.182Z,98159.34
2018-08-17T01:06:43.386Z,98155.03
2018-08-17T01:08:55.554Z,98155.98
2018-08-17T01:11:07.828Z,98159.89
2018-08-17T01:13:20.058Z,98155.20
2018-08-17T01:15:32.250Z,98155.16
2018-08-17T01:17:44.463Z,98159.06
2018-08-17T01:19:56.778Z,98156.09
2018-08-17T01:22:09.031Z,98159.72
2018-08-17T01:24:21.298Z,98161.16
2018-08-17T01:26:33.463Z,98158.53
2018-08-17T01:28:45.659Z,98160.91
2018-08-17T01:30:57.832Z,98154.38
2018-08-17T01:33:10.055Z,98155.31
2018-08-17T01:35:22.207Z,98148.73
2018-08-17T01:37:34.402Z,98148.89
2018-08-17T01:39:46.653Z,98155.55
2018-08-17T01:41:58.848Z,98147.94
2018-08-17T01:44:10.986Z,98147.13
2018-08-17T01:46:23.185Z,98139.02
2018-08-17T01:48:35.369Z,98148.72
2018-08-17T01:50:48.407Z,98142.88
2018-08-17T01:53:00.611Z,98146.56
2018-08-17T01:55:12.806Z,98139.60
2018-08-17T01:57:25.085Z,98137.47
2018-08-17T01:59:37.287Z,98144.38
2018-08-17T02:01:49.482Z,98139.73
2018-08-17T02:04:01.681Z,98138.78
2018-08-17T02:06:13.874Z,98139.52
2018-08-17T02:08:26.075Z,98138.64
2018-08-17T02:10:38.283Z,98139.75
2018-08-17T02:12:50.482Z,98133.25
2018-08-17T02:15:02.733Z,98135.00
2018-08-17T02:17:14.911Z,98140.72
2018-08-17T02:19:27.070Z,98136.88
2018-08-17T02:21:39.421Z,98134.86
2018-08-17T02:23:51.595Z,98138.47
2018-08-17T02:26:03.829Z,98140.61
2018-08-17T02:28:16.031Z,98130.52
2018-08-17T02:30:28.274Z,98127.19
2018-08-17T02:32:40.435Z,98133.83
2018-08-17T02:34:52.688Z,98140.22
2018-08-17T02:37:04.947Z,98136.77
2018-08-17T02:39:18.123Z,98134.75
2018-08-17T02:41:30.310Z,98133.99
2018-08-17T02:43:42.451Z,98129.17
2018-08-17T02:45:54.607Z,98131.95
2018-08-17T02:48:06.835Z,98128.19
2018-08-17T02:50:19.091Z,98128.83
2018-08-17T02:52:31.282Z,98129.72
2018-08-17T02:54:43.458Z,98121.45
2018-08-17T02:56:55.711Z,98127.86
2018-08-17T02:59:07.906Z,98130.70
2018-08-17T03:01:20.066Z,98119.48
2018-08-17T03:03:32.291Z,98122.48
2018-08-17T03:05:44.454Z,98119.64
2018-08-17T03:07:56.667Z,98125.17
2018-08-17T03:10:08.878Z,98126.09
2018-08-17T03:12:22.072Z,98124.94
2018-08-17T03:14:34.252Z,98121.54
2018-08-17T03:16:46.488Z,98121.88
2018-08-17T03:18:58.654Z,98119.95
2018-08-17T03:21:10.831Z,98121.75
2018-08-17T03:23:23.072Z,98124.22
2018-08-17T03:25:35.229Z,98128.87
2018-08-17T03:27:47.431Z,98121.88
2018-08-17T03:29:59.610Z,98126.64
2018-08-17T03:32:11.783Z,98127.06
2018-08-17T03:34:23.979Z,98125.41
2018-08-17T03:36:36.201Z,98124.99
2018-08-17T03:38:48.390Z,98124.72
2018-08-17T03:41:00.574Z,98124.38
2018-08-17T03:43:12.757Z,98133.09
2018-08-17T03:45:24.943Z,98133.58
2018-08-17T03:47:37.120Z,98134.03
2018-08-17T03:49:49.361Z,98136.81
2018-08-17T03:52:01.622Z,98138.83
2018-08-17T03:54:14.531Z,98135.56
2018-08-17T03:56:26.702Z,98137.70
2018-08-17T03:58:38.925Z,98140.81
2018-08-17T04:00:51.096Z,98140.14
2018-08-17T04:03:03.331Z,98142.95
2018-08-17T04:05:15.615Z,98140.33
2018-08-17T04:07:27.822Z,98141.80
2018-08-17T04:09:39.998Z,98142.77
2018-08-17T04:11:52.176Z,98144.97
2018-08-17T04:14:04.434Z,98151.53
2018-08-17T04:16:16.638Z,98152.91
2018-08-17T04:18:28.851Z,98158.23
2018-08-17T04:20:43.097Z,98163.09
2018-08-17T04:22:55.282Z,98160.38
2018-08-17T04:25:07.525Z,98156.49
2018-08-17T04:27:19.697Z,98168.62
2018-08-17T04:29:31.900Z,98159.64
2018-08-17T04:31:44.090Z,98167.98
2018-08-17T04:33:56.287Z,98162.38
2018-08-17T04:36:08.531Z,98163.98
2018-08-17T04:38:20.710Z,98162.12
2018-08-17T04:40:32.914Z,98169.73
2018-08-17T04:42:45.107Z,98164.66
2018-08-17T04:44:57.354Z,98165.84
2018-08-17T04:47:09.568Z,98163.22
2018-08-17T04:49:21.793Z,98162.30
2018-08-17T04:51:33.950Z,98166.73
2018-08-17T04:53:46.154Z,98162.20
2018-08-17T04:55:58.362Z,98167.94
2018-08-17T04:58:10.572Z,98170.84
2018-08-17T05:00:22.741Z,98167.52
2018-08-17T05:02:35.194Z,98179.74
2018-08-17T05:04:47.406Z,98174.47
2018-08-17T05:06:59.618Z,98179.70
2018-08-17T05:09:11.812Z,98176.77
2018-08-17T05:11:24.032Z,98173.04
2018-08-17T05:13:36.254Z,98177.52
2018-08-17T05:15:48.460Z,98171.84
2018-08-17T05:18:00.668Z,98177.00
2018-08-17T05:20:12.850Z,98176.91
2018-08-17T05:22:25.027Z,98175.84
2018-08-17T05:24:37.251Z,98179.05
2018-08-17T05:26:49.430Z,98174.81
2018-08-17T05:29:01.646Z,98182.10
2018-08-17T05:31:13.810Z,98187.02
2018-08-17T05:33:26.287Z,98183.15
2018-08-17T05:35:38.514Z,98191.33
2018-08-17T05:37:50.682Z,98189.00
2018-08-17T05:40:03.164Z,98190.97
2018-08-17T05:42:15.340Z,98189.94
2018-08-17T05:44:27.602Z,98185.25
2018-08-17T05:46:39.830Z,98187.02
2018-08-17T05:48:52.009Z,98187.25
2018-08-17T05:51:04.906Z,98189.44
2018-08-17T05:53:17.063Z,98187.84
2018-08-17T05:55:31.289Z,98191.82
2018-08-17T05:57:43.483Z,98193.91
2018-08-17T05:59:55.727Z,98193.98
2018-08-17T06:02:08.087Z,98197.03
2018-08-17T06:04:20.330Z,98195.77
2018-08-17T06:06:32.555Z,98196.64
2018-08-17T06:08:44.803Z,98198.80
2018-08-17T06:10:57.032Z,98206.42
2018-08-17T06:13:09.195Z,98206.14
2018-08-17T06:15:21.409Z,98208.52
2018-08-17T06:17:34.269Z,98200.66
2018-08-17T06:19:46.436Z,98206.60
2018-08-17T06:21:59.332Z,98207.84
2018-08-17T06:24:11.519Z,98211.22
2018-08-17T06:26:24.403Z,98206.19
2018-08-17T06:28:37.571Z,98204.38
2018-08-17T06:30:49.820Z,98209.80
2018-08-17T06:33:02.045Z,98209.10
2018-08-17T06:35:14.489Z,98204.39
2018-08-17T06:37:26.762Z,98203.66
2018-08-17T06:39:38.902Z,98204.94
2018-08-17T06:41:51.072Z,98202.67
2018-08-17T06:44:03.453Z,98202.91
2018-08-17T06:46:15.647Z,98205.55
2018-08-17T06:48:27.854Z,98209.96
2018-08-17T06:50:40.167Z,98211.17
2018-08-17T06:52:52.285Z,98206.88
2018-08-17T06:55:06.087Z,98208.56
2018-08-17T06:57:18.324Z,98210.08
2018-08-17T06:59:30.448Z,98206.25
2018-08-17T07:01:42.707Z,98203.52
2018-08-17T07:03:54.911Z,98206.45
2018-08-17T07:06:07.099Z,98205.03
2018-08-17T07:08:19.354Z,98205.52
2018-08-17T07:10:31.526Z,98212.65
2018-08-17T07:12:43.758Z,98207.88
2018-08-17T07:14:55.963Z,98210.03
2018-08-17T07:17:08.140Z,98217.09
2018-08-17T07:19:20.327Z,98217.39
2018-08-17T07:21:32.573Z,98223.44
2018-08-17T07:23:44.772Z,98221.80
2018-08-17T07:25:56.995Z,98224.81
2018-08-17T07:28:09.200Z,98219.81
2018-08-17T07:30:21.391Z,98222.32
2018-08-17T07:32:33.611Z,98229.88
2018-08-17T07:34:45.807Z,98230.48
2018-08-17T07:36:58.042Z,98227.78
2018-08-17T07:39:10.234Z,98230.36
2018-08-17T07:41:22.430Z,98234.97
2018-08-17T07:43:34.623Z,98229.48
2018-08-17T07:45:46.880Z,98235.48
2018-08-17T07:47:59.156Z,98232.17
2018-08-17T07:50:19.690Z,98235.53
2018-08-17T07:52:31.922Z,98235.84
2018-08-17T07:54:44.132Z,98231.96
2018-08-17T07:56:56.334Z,98237.95
2018-08-17T07:59:08.552Z,98238.97
2018-08-17T08:01:20.786Z,98243.27
2018-08-17T08:03:32.975Z,98246.73
2018-08-17T08:05:45.231Z,98247.55
2018-08-17T08:07:57.432Z,98254.45
2018-08-17T08:10:10.679Z,98253.69
2018-08-17T08:12:22.956Z,98257.47
2018-08-17T08:14:35.196Z,98256.09
2018-08-17T08:16:47.426Z,98260.77
2018-08-17T08:18:59.652Z,98261.83
2018-08-17T08:21:11.875Z,98261.66
2018-08-17T08:23:26.110Z,98264.94
2018-08-17T08:25:38.758Z,98266.80
2018-08-17T08:27:50.921Z,98267.79
2018-08-17T08:30:03.431Z,98269.56
2018-08-17T08:32:15.656Z,98271.45
2018-08-17T08:34:27.905Z,98266.80
2018-08-17T08:36:40.118Z,98264.25
2018-08-17T08:38:52.306Z,98264.25
2018-08-17T08:41:04.698Z,98258.91
2018-08-17T08:43:16.948Z,98263.30
2018-08-17T08:45:29.193Z,98259.97
2018-08-17T08:47:41.354Z,98266.05
2018-08-17T08:49:53.556Z,98265.15
2018-08-17T08:52:06.076Z,98266.49
2018-08-17T08:54:18.283Z,98273.56
2018-08-17T08:56:30.520Z,98270.17
2018-08-17T08:58:42.714Z,98268.28
2018-08-17T09:00:54.967Z,98266.28
2018-08-17T09:03:07.295Z,98269.88
2018-08-17T09:05:19.479Z,98270.37
2018-08-17T09:07:31.694Z,98276.70
2018-08-17T09:09:44.018Z,98272.91
2018-08-17T09:11:56.235Z,98268.92
2018-08-17T09:14:08.512Z,98267.66
2018-08-17T09:16:20.923Z,98271.98
2018-08-17T09:18:33.154Z,98268.42
2018-08-17T09:20:45.381Z,98270.37
2018-08-17T09:22:57.630Z,98270.37
2018-08-17T09:25:09.929Z,98271.89
2018-08-17T09:27:22.191Z,98267.66
2018-08-17T09:29:34.437Z,98267.52
2018-08-17T09:31:46.687Z,98269.22
2018-08-17T09:33:58.970Z,98276.67
2018-08-17T09:36:11.182Z,98265.66
2018-08-17T09:38:23.391Z,98270.19
2018-08-17T09:40:35.618Z,98265.19
2018-08-17T09:42:47.839Z,98270.72
2018-08-17T09:45:00.037Z,98266.93
2018-08-17T09:47:12.273Z,98264.09
2018-08-17T09:49:24.623Z,98266.61
2018-08-17T09:51:37.119Z,98269.62
2018-08-17T09:53:49.305Z,98272.06
2018-08-17T09:56:01.685Z,98263.11
2018-08-17T09:58:13.870Z,98258.47
2018-08-17T10:00:31.802Z,98254.80
2018-08-17T10:02:49.749Z,98251.42
2018-08-17T10:05:07.522Z,98251.95
2018-08-17T10:07:25.385Z,98251.08
2018-08-17T10:09:43.318Z,98253.69
2018-08-17T10:11:55.538Z,98245.98
2018-08-17T10:14:07.750Z,98240.36
2018-08-17T10:16:19.941Z,98245.56
2018-08-17T10:18:40.739Z,98245.11
2018-08-17T10:20:53.030Z,98247.70
2018-08-17T10:23:12.400Z,98247.05
2018-08-17T10:25:25.362Z,98247.63
2018-08-17T10:27:37.573Z,98244.09
2018-08-17T10:29:49.767Z,98243.67
2018-08-17T10:32:01.979Z,98243.91
2018-08-17T10:34:14.199Z,98237.72
2018-08-17T10:36:26.391Z,98241.90
2018-08-17T10:38:38.606Z,98243.67
2018-08-17T10:40:50.890Z,98240.16
2018-08-17T10:43:04.500Z,98238.03
2018-08-17T10:45:17.179Z,98241.72
2018-08-17T10:47:29.432Z,98244.02
2018-08-17T10:49:41.612Z,98252.09
2018-08-17T10:51:56.022Z,98245.88
2018-08-17T10:54:08.258Z,98243.11
2018-08-17T10:56:20.559Z,98253.24
2018-08-17T10:58:33.302Z,98243.47
2018-08-17T11:00:45.575Z,98241.25
2018-08-17T11:02:57.810Z,98232.71
2018-08-17T11:05:10.451Z,98226.86
2018-08-17T11:07:29.235Z,98229.70
2018-08-17T11:09:41.498Z,98231.30
2018-08-17T11:11:53.716Z,98224.76
2018-08-17T11:14:05.934Z,98229.42
2018-08-17T11:16:18.175Z,98227.98
2018-08-17T11:18:30.462Z,98225.39
2018-08-17T11:20:42.695Z,98223.13
2018-08-17T11:22:54.897Z,98219.67
2018-08-17T11:25:07.750Z,98222.90
2018-08-17T11:27:19.967Z,98214.99
2018-08-17T11:29:32.208Z,98215.70
2018-08-17T11:31:44.403Z,98214.30
2018-08-17T11:33:56.646Z,98211.42
2018-08-17T11:36:08.867Z,98210.08
2018-08-17T11:38:21.092Z,98212.05
2018-08-17T11:40:33.304Z,98211.95
2018-08-17T11:42:46.847Z,98212.30
2018-08-17T11:44:59.098Z,98212.52
2018-08-17T11:47:11.323Z,98222.30
2018-08-17T11:49:24.170Z,98216.22
2018-08-17T11:51:38.753Z,98222.95
2018-08-17T11:53:50.987Z,98212.19
2018-08-17T11:56:03.226Z,98218.03
2018-08-17T11:58:15.400Z,98219.34
2018-08-17T12:00:34.065Z,98218.47
2018-08-17T12:02:46.595Z,98227.81
2018-08-17T12:04:58.805Z,98224.20
2018-08-17T12:07:11.093Z,98222.77
2018-08-17T12:09:23.603Z,98219.23
2018-08-17T12:11:35.796Z,98222.63
2018-08-17T12:13:48.012Z,98229.28
2018-08-17T12:16:00.223Z,98234.26
2018-08-17T12:18:12.668Z,98233.84
2018-08-17T12:20:24.874Z,98225.42
2018-08-17T12:22:37.119Z,98218.55
2018-08-17T12:24:49.339Z,98227.20
2018-08-17T12:27:01.562Z,98223.27
2018-08-17T12:29:13.784Z,98224.52
2018-08-17T12:31:25.978Z,98221.70
2018-08-17T12:33:38.244Z,98218.40
2018-08-17T12:35:50.461Z,98214.44
2018-08-17T12:38:08.337Z,98210.36
2018-08-17T12:40:20.623Z,98213.55
2018-08-17T12:42:34.888Z,98209.40
2018-08-17T12:44:47.339Z,98208.61
2018-08-17T12:46:59.563Z,98204.44
2018-08-17T12:49:11.790Z,98201.96
2018-08-17T12:51:23.994Z,98201.56
2018-08-17T12:53:36.205Z,98194.48
2018-08-17T12:55:48.429Z,98196.42
2018-08-17T12:58:00.691Z,98198.34
2018-08-17T13:00:12.850Z,98207.57
2018-08-17T13:02:25.115Z,98214.12
2018-08-17T13:04:37.331Z,98213.70
2018-08-17T13:06:49.734Z,98218.33
2018-08-17T13:09:02.041Z,98214.89
2018-08-17T13:11:14.267Z,98215.14
2018-08-17T13:13:26.568Z,98219.31
2018-08-17T13:15:44.640Z,98219.00
2018-08-17T13:17:56.895Z,98220.55
2018-08-17T13:20:09.093Z,98223.30
2018-08-17T13:22:21.298Z,98219.86
2018-08-17T13:24:33.540Z,98220.59
2018-08-17T13:26:46.291Z,98219.31
2018-08-17T13:28:58.494Z,98220.84
2018-08-17T13:31:10.704Z,98217.21
2018-08-17T13:33:22.894Z,98216.14
2018-08-17T13:35:35.169Z,98217.86
2018-08-17T13:37:47.400Z,98215.09
2018-08-17T13:39:59.648Z,98216.06
2018-08-17T13:42:11.856Z,98211.55
2018-08-17T13:44:24.109Z,98206.36
2018-08-17T13:46:36.367Z,98213.09
2018-08-17T13:48:48.700Z,98208.78
2018-08-17T13:51:00.933Z,98201.78
2018-08-17T13:53:13.171Z,98195.91
2018-08-17T13:55:25.456Z,98200.02
2018-08-17T13:57:37.587Z,98198.56
2018-08-17T13:59:49.907Z,98189.22
2018-08-17T14:02:02.182Z,98190.04
2018-08-17T14:04:14.403Z,98187.64
2018-08-17T14:06:26.654Z,98187.73
2018-08-17T14:08:38.890Z,98187.73
2018-08-17T14:10:51.111Z,98186.25
2018-08-17T14:13:03.310Z,98185.36
2018-08-17T14:15:15.549Z,98185.94
2018-08-17T14:17:27.781Z,98177.31
2018-08-17T14:19:40.010Z,98177.44
2018-08-17T14:21:52.291Z,98173.41
2018-08-17T14:24:04.631Z,98181.63
2018-08-17T14:26:16.838Z,98180.28
2018-08-17T14:28:29.130Z,98180.56
2018-08-17T14:30:41.360Z,98182.67
2018-08-17T14:32:53.560Z,98177.30
2018-08-17T14:35:05.943Z,98177.75
2018-08-17T14:37:18.151Z,98166.13
2018-08-17T14:39:30.338Z,98167.09
2018-08-17T14:41:58.025Z,98172.33
2018-08-17T14:44:10.227Z,98176.44
2018-08-17T14:46:22.447Z,98178.22
2018-08-17T14:48:34.691Z,98177.20
2018-08-17T14:50:46.986Z,98183.98
2018-08-17T14:52:59.266Z,98183.55
2018-08-17T14:55:11.899Z,98183.25
2018-08-17T14:57:24.122Z,98179.44
2018-08-17T14:59:36.385Z,98183.23
2018-08-17T15:01:48.675Z,98183.14
2018-08-17T15:04:00.894Z,98185.00
2018-08-17T15:06:13.086Z,98185.73
2018-08-17T15:08:25.335Z,98188.23
2018-08-17T15:10:37.530Z,98189.20
2018-08-17T15:12:49.828Z,98183.75
2018-08-17T15:15:01.997Z,98183.36
2018-08-17T15:17:14.214Z,98182.84
2018-08-17T15:19:26.499Z,98185.81
2018-08-17T15:21:39.087Z,98184.33
2018-08-17T15:23:51.355Z,98187.38
2018-08-17T15:26:03.613Z,98183.51
2018-08-17T15:28:15.834Z,98184.03
2018-08-17T15:30:28.155Z,98185.05
2018-08-17T15:32:41.244Z,98184.67
2018-08-17T15:34:53.443Z,98189.88
2018-08-17T15:37:05.665Z,98188.38
2018-08-17T15:39:17.897Z,98182.36
2018-08-17T15:41:30.153Z,98181.31
2018-08-17T15:43:42.355Z,98180.11
2018-08-17T15:45:54.601Z,98176.39
2018-08-17T15:48:06.832Z,98178.63
2018-08-17T15:50:20.256Z,98180.59
2018-08-17T15:52:32.504Z,98179.77
2018-08-17T15:54:44.715Z,98178.48
2018-08-17T15:56:57.170Z,98184.18
2018-08-17T15:59:09.401Z,98180.78
2018-08-17T16:01:21.708Z,98181.58
2018-08-17T16:03:33.874Z,98181.09
2018-08-17T16:05:46.110Z,98180.37
2018-08-17T16:07:58.340Z,98184.00
2018-08-17T16:10:12.704Z,98184.20
2018-08-17T16:12:24.887Z,98187.14
2018-08-17T16:14:37.111Z,98189.27
2018-08-17T16:16:49.274Z,98200.52
2018-08-17T16:19:02.344Z,98200.55
2018-08-17T16:21:14.515Z,98201.09
2018-08-17T16:23:26.773Z,98210.34
2018-08-17T16:25:39.051Z,98212.92
2018-08-17T16:27:51.317Z,98206.75
2018-08-17T16:30:04.531Z,98207.08
2018-08-17T16:32:16.742Z,98207.30
2018-08-17T16:34:28.973Z,98209.17
2018-08-17T16:36:42.259Z,98205.92
2018-08-17T16:38:54.496Z,98200.36
2018-08-17T16:41:06.719Z,98203.79
2018-08-17T16:43:53.199Z,98201.70
2018-08-17T16:46:05.399Z,98207.91
2018-08-17T16:48:17.583Z,98206.69
2018-08-17T16:50:29.835Z,98213.97
2018-08-17T16:52:42.132Z,98216.45
2018-08-17T16:54:54.377Z,98219.31
2018-08-17T16:57:06.595Z,98215.02
2018-08-17T16:59:18.795Z,98215.23
2018-08-17T17:01:31.379Z,98213.66
2018-08-17T17:03:43.687Z,98219.11
2018-08-17T17:06:00.528Z,98223.53
2018-08-17T17:08:12.786Z,98218.81
2018-08-17T17:10:29.404Z,98226.64
2018-08-17T17:12:41.688Z,98221.08
2018-08-17T17:15:00.488Z,98236.28
2018-08-17T17:17:12.915Z,98240.59
2018-08-17T17:19:25.149Z,98236.69
2018-08-17T17:21:40.259Z,98242.13
2018-08-17T17:23:58.865Z,98248.20
2018-08-17T17:26:11.720Z,98249.42
2018-08-17T17:28:28.580Z,98252.60
2018-08-17T17:30:46.600Z,98250.82
2018-08-17T17:32:58.923Z,98246.09
2018-08-17T17:35:11.180Z,98249.88
2018-08-17T17:37:23.407Z,98254.39
2018-08-17T17:39:35.666Z,98259.61
2018-08-17T17:41:47.908Z,98258.59
2018-08-17T17:44:00.200Z,98268.49
2018-08-17T17:46:12.491Z,98273.63
2018-08-17T17:48:24.717Z,98276.14
2018-08-17T17:50:36.994Z,98283.51
2018-08-17T17:52:49.249Z,98289.45
2018-08-17T17:55:01.482Z,98294.15
2018-08-17T17:57:13.734Z,98296.20
2018-08-17T17:59:26.067Z,98303.84
2018-08-17T18:01:38.327Z,98306.91
2018-08-17T18:03:50.558Z,98305.05
2018-08-17T18:06:07.832Z,98310.89
2018-08-17T18:08:20.106Z,98318.26
2018-08-17T18:10:32.651Z,98316.80
2018-08-17T18:12:45.048Z,98320.58
2018-08-17T18:14:57.331Z,98327.71
2018-08-17T18:17:09.964Z,98324.09
2018-08-17T18:19:22.373Z,98326.72
2018-08-17T18:21:34.698Z,98334.41
2018-08-17T18:23:55.950Z,98335.53
2018-08-17T18:26:09.782Z,98342.53
2018-08-17T18:28:22.095Z,98347.36
2018-08-17T18:30:34.438Z,98349.02
2018-08-17T18:32:46.700Z,98361.70
2018-08-17T18:34:59.020Z,98361.17
2018-08-17T18:37:11.260Z,98364.28
2018-08-17T18:39:23.536Z,98369.19
2018-08-17T18:41:35.854Z,98370.21
2018-08-17T18:43:48.119Z,98374.03
2018-08-17T18:46:00.354Z,98378.85
2018-08-17T18:48:12.670Z,98385.69
2018-08-17T18:50:24.965Z,98393.58
2018-08-17T18:52:37.285Z,98399.22
2018-08-17T18:54:49.540Z,98405.95
2018-08-17T18:57:01.796Z,98407.66
2018-08-17T18:59:14.137Z,98413.36
2018-08-17T19:01:26.406Z,98419.26
2018-08-17T19:03:38.696Z,98422.80
2018-08-17T19:05:50.948Z,98434.66
2018-08-17T19:08:03.231Z,98439.53
2018-08-17T19:10:15.499Z,98434.33
2018-08-17T19:12:27.717Z,98434.49
2018-08-17T19:14:44.319Z,98446.08
2018-08-17T19:16:56.546Z,98442.97
2018-08-17T19:19:08.853Z,98446.14
2018-08-17T19:21:21.174Z,98448.17
2018-08-17T19:23:33.675Z,98450.83
2018-08-17T19:25:45.901Z,98453.55
2018-08-17T19:27:58.133Z,98454.42
2018-08-17T19:30:22.136Z,98456.99
2018-08-17T19:32:34.332Z,98460.17
2018-08-17T19:34:46.548Z,98457.92
2018-08-17T19:36:59.093Z,98453.20
2018-08-17T19:39:19.554Z,98461.55
2018-08-17T19:41:31.797Z,98463.87
2018-08-17T19:43:44.021Z,98469.23
2018-08-17T19:45:56.299Z,98473.32
2018-08-17T19:48:08.455Z,98484.32
2018-08-17T19:50:20.751Z,98490.97
2018-08-17T19:52:33.016Z,98497.39
2018-08-17T19:54:45.212Z,98505.38
2018-08-17T19:56:57.457Z,98502.25
2018-08-17T19:59:09.686Z,98504.91
2018-08-17T20:01:21.923Z,98505.38
2018-08-17T20:03:34.153Z,98511.58
2018-08-17T20:05:46.384Z,98513.45
2018-08-17T20:07:58.641Z,98508.67
2018-08-17T20:10:12.208Z,98502.54
2018-08-17T20:12:24.443Z,98495.07
2018-08-17T20:14:36.674Z,98493.78
2018-08-17T20:16:48.929Z,98499.48
2018-08-17T20:19:01.748Z,98493.34
2018-08-17T20:21:13.974Z,98492.37
2018-08-17T20:23:26.224Z,98499.24
2018-08-17T20:25:38.544Z,98498.10
2018-08-17T20:27:50.726Z,98502.44
2018-08-17T20:30:08.623Z,98505.44
2018-08-17T20:32:20.831Z,98506.64
2018-08-17T20:34:34.558Z,98504.84
2018-08-17T20:36:46.827Z,98507.87
2018-08-17T20:38:59.247Z,98512.33
2018-08-17T20:41:11.496Z,98517.86
2018-08-17T20:43:23.752Z,98526.30
2018-08-17T20:45:36.543Z,98526.04
2018-08-17T20:47:49.616Z,98530.17
2018-08-17T20:50:01.837Z,98533.55
2018-08-17T20:52:14.048Z,98540.21
2018-08-17T20:54:27.722Z,98538.72
2018-08-17T20:56:39.940Z,98538.73
2018-08-17T20:58:52.914Z,98546.54
2018-08-17T21:01:06.011Z,98542.26
2018-08-17T21:03:19.175Z,98551.55
2018-08-17T21:05:32.461Z,98557.02
2018-08-17T21:07:45.451Z,98557.37
2018-08-17T21:09:57.734Z,98561.19
2018-08-17T21:12:09.951Z,98565.52
2018-08-17T21:14:22.214Z,98570.32
2018-08-17T21:16:35.420Z,98570.34
2018-08-17T21:18:47.654Z,98577.80
2018-08-17T21:20:59.910Z,98584.25
2018-08-17T21:23:12.135Z,98584.25
2018-08-17T21:25:24.354Z,98596.19
2018-08-17T21:27:36.546Z,98596.88
2018-08-17T21:29:48.799Z,98602.34
2018-08-17T21:32:01.067Z,98610.99
2018-08-17T21:34:13.319Z,98613.65
2018-08-17T21:36:26.415Z,98618.95
2018-08-17T21:38:39.927Z,98618.45
2018-08-17T21:40:52.844Z,98619.94
2018-08-17T21:43:05.014Z,98629.71
2018-08-17T21:45:19.359Z,98629.56
2018-08-17T21:47:31.547Z,98630.56
2018-08-17T21:49:43.778Z,98636.37
2018-08-17T21:51:58.588Z,98640.48
2018-08-17T21:54:10.809Z,98642.17
2018-08-17T21:56:23.103Z,98643.47
2018-08-17T21:58:35.316Z,98638.16
2018-08-17T22:00:47.583Z,98644.12
2018-08-17T22:02:59.932Z,98653.72
2018-08-17T22:05:16.757Z,98659.52
2018-08-17T22:07:30.755Z,98659.52
2018-08-17T22:09:42.997Z,98670.08
2018-08-17T22:11:55.196Z,98668.55
2018-08-17T22:14:07.466Z,98664.83
2018-08-17T22:16:19.666Z,98669.78
2018-08-17T22:18:32.600Z,98672.22
2018-08-17T22:20:44.745Z,98671.64
2018-08-17T22:22:58.074Z,98680.33
2018-08-17T22:25:13.138Z,98685.22
2018-08-17T22:27:26.546Z,98685.73
2018-08-17T22:29:38.779Z,98693.68
2018-08-17T22:31:50.919Z,98690.49
2018-08-17T22:34:03.200Z,98698.58
2018-08-17T22:36:20.471Z,98691.58
2018-08-17T22:38:37.230Z,98698.20
2018-08-17T22:40:49.452Z,98686.59
2018-08-17T22:43:01.675Z,98689.30
2018-08-17T22:45:13.885Z,98686.95
2018-08-17T22:47:27.792Z,98688.91
2018-08-17T22:49:40.010Z,98683.92
2018-08-17T22:51:52.170Z,98678.91
2018-08-17T22:54:04.390Z,98676.41
2018-08-17T22:56:16.903Z,98675.85
2018-08-17T22:58:33.652Z,98676.48
2018-08-17T23:00:46.329Z,98673.23
2018-08-17T23:02:59.946Z,98660.83
2018-08-17T23:05:14.014Z,98662.13
2018-08-17T23:07:26.203Z,98658.96
2018-08-17T23:09:38.391Z,98661.08
2018-08-17T23:11:50.595Z,98665.66
2018-08-17T23:14:08.674Z,98673.76
2018-08-17T23:16:21.457Z,98668.93
2018-08-17T23:18:33.654Z,98676.73
2018-08-17T23:20:45.898Z,98675.37
2018-08-17T23:22:59.343Z,98678.66
2018-08-17T23:25:11.585Z,98677.03
2018-08-17T23:27:23.799Z,98675.25
2018-08-17T23:29:35.995Z,98673.77
2018-08-17T23:31:48.227Z,98672.61
2018-08-17T23:34:00.430Z,98671.78
2018-08-17T23:36:12.630Z,98667.65
2018-08-17T23:38:24.816Z,98666.73
2018-08-17T23:40:37.026Z,98667.72
2018-08-17T23:42:49.274Z,98667.32
2018-08-17T23:45:01.850Z,98679.22
2018-08-17T23:47:14.066Z,98672.25
2018-08-17T23:49:26.305Z,98667.45
2018-08-17T23:51:38.522Z,98664.61
2018-08-17T23:53:50.738Z,98671.02
2018-08-17T23:56:02.991Z,98672.59
2018-08-17T23:58:15.215Z,98680.53
